createdAt,value
2018-10-05T00:01:31.525Z,21.00
2018-10-05T00:03:59.736Z,21.57
2018-10-05T00:06:27.934Z,21.23
2018-10-05T00:08:56.079Z,21.00
2018-10-05T00:11:24.220Z,22.30
2018-10-05T00:13:52.394Z,21.03
2018-10-05T00:16:20.559Z,21.50
2018-10-05T00:18:48.819Z,21.80
2018-10-05T00:21:16.991Z,21.97
2018-10-05T00:23:45.093Z,22.37
2018-10-05T00:26:13.264Z,21.60
2018-10-05T00:28:41.429Z,20.60
2018-10-05T00:31:09.601Z,21.40
2018-10-05T00:33:37.752Z,21.30
2018-10-05T00:36:05.943Z,20.47
2018-10-05T00:38:34.127Z,20.83
2018-10-05T00:41:02.305Z,20.60
2018-10-05T00:43:31.447Z,21.20
2018-10-05T00:45:59.740Z,20.50
2018-10-05T00:48:27.836Z,21.10
2018-10-05T00:50:56.072Z,21.63
2018-10-05T00:53:24.272Z,19.90
2018-10-05T00:55:52.437Z,20.37
2018-10-05T00:58:20.639Z,20.60
2018-10-05T01:00:48.828Z,20.20
2018-10-05T01:03:16.994Z,21.53
2018-10-05T01:05:45.288Z,21.00
2018-10-05T01:08:13.481Z,21.30
2018-10-05T01:10:41.776Z,21.37
2018-10-05T01:13:09.921Z,21.10
2018-10-05T01:15:38.190Z,21.70
2018-10-05T01:18:06.666Z,21.20
2018-10-05T01:20:34.804Z,21.00
2018-10-05T01:23:02.914Z,21.77
2018-10-05T01:25:31.116Z,21.40
2018-10-05T01:27:59.310Z,21.50
2018-10-05T01:30:27.474Z,20.90
2018-10-05T01:32:55.603Z,21.60
2018-10-05T01:35:23.840Z,19.90
2018-10-05T01:37:51.948Z,20.10
2018-10-05T01:40:20.162Z,20.17
2018-10-05T01:42:48.334Z,20.43
2018-10-05T01:45:16.493Z,19.90
2018-10-05T01:47:44.694Z,19.53
2018-10-05T01:50:12.833Z,20.40
2018-10-05T01:52:40.969Z,21.13
2018-10-05T01:55:09.077Z,20.00
2018-10-05T01:57:37.314Z,20.27
2018-10-05T02:00:05.433Z,20.73
2018-10-05T02:02:33.685Z,20.00
2018-10-05T02:05:01.805Z,20.63
2018-10-05T02:07:29.934Z,20.10
2018-10-05T02:09:58.120Z,18.60
2018-10-05T02:12:26.277Z,20.70
2018-10-05T02:14:54.366Z,20.97
2018-10-05T02:17:22.525Z,21.30
2018-10-05T02:19:50.681Z,21.20
2018-10-05T02:22:18.788Z,20.43
2018-10-05T02:24:46.968Z,20.67
2018-10-05T02:27:15.104Z,20.13
2018-10-05T02:29:43.275Z,20.17
2018-10-05T02:32:11.529Z,21.33
2018-10-05T02:34:39.668Z,20.37
2018-10-05T02:37:19.751Z,20.47
2018-10-05T02:39:48.069Z,20.60
2018-10-05T02:42:16.293Z,20.53
2018-10-05T02:44:44.472Z,20.40
2018-10-05T02:47:12.633Z,19.27
2018-10-05T02:49:41.458Z,18.70
2018-10-05T02:52:10.897Z,20.30
2018-10-05T02:54:39.165Z,19.57
2018-10-05T02:57:07.590Z,19.20
2018-10-05T02:59:36.156Z,20.00
2018-10-05T03:02:23.948Z,19.23
2018-10-05T03:07:31.179Z,21.07
2018-10-05T03:10:01.341Z,19.17
2018-10-05T03:12:30.283Z,21.40
2018-10-05T03:14:59.453Z,18.47
2018-10-05T03:17:28.088Z,19.97
2018-10-05T03:19:56.770Z,20.17
2018-10-05T03:22:25.508Z,18.43
2018-10-05T03:24:53.682Z,19.80
2018-10-05T03:27:21.874Z,19.20
2018-10-05T03:29:50.969Z,19.10
2018-10-05T03:32:19.193Z,20.23
2018-10-05T03:34:47.471Z,19.17
2018-10-05T03:37:15.750Z,19.40
2018-10-05T03:39:43.929Z,19.47
2018-10-05T03:42:12.618Z,19.70
2018-10-05T03:44:40.938Z,19.70
2018-10-05T03:47:09.176Z,19.73
2018-10-05T03:49:37.398Z,19.17
2018-10-05T03:52:07.420Z,21.43
2018-10-05T03:54:35.838Z,26.17
2018-10-05T03:57:06.000Z,20.13
2018-10-05T03:59:34.202Z,20.77
2018-10-05T04:02:02.503Z,21.60
2018-10-05T04:04:30.746Z,20.93
2018-10-05T04:07:00.402Z,20.10
2018-10-05T04:09:28.568Z,20.87
2018-10-05T04:11:57.457Z,21.03
2018-10-05T04:14:27.113Z,21.63
2018-10-05T04:16:55.334Z,21.70
2018-10-05T04:19:23.854Z,20.60
2018-10-05T04:21:51.989Z,21.63
2018-10-05T04:24:20.207Z,20.77
2018-10-05T04:26:48.522Z,19.97
2018-10-05T04:29:16.756Z,21.30
2018-10-05T04:31:45.405Z,20.33
2018-10-05T04:34:13.679Z,20.93
2018-10-05T04:36:41.984Z,20.37
2018-10-05T04:39:10.332Z,21.03
2018-10-05T04:41:39.780Z,21.60
2018-10-05T04:44:08.102Z,20.23
2018-10-05T04:46:36.353Z,20.57
2018-10-05T04:49:04.518Z,20.47
2018-10-05T04:51:32.792Z,19.47
2018-10-05T04:54:00.932Z,19.80
2018-10-05T04:56:29.095Z,21.90
2018-10-05T04:58:57.235Z,20.73
2018-10-05T05:01:25.328Z,20.53
2018-10-05T05:03:53.480Z,20.80
2018-10-05T05:06:21.679Z,19.97
2018-10-05T05:08:49.966Z,21.43
2018-10-05T05:11:18.037Z,21.27
2018-10-05T05:13:46.199Z,20.30
2018-10-05T05:16:14.401Z,20.30
2018-10-05T05:18:42.564Z,21.30
2018-10-05T05:21:10.716Z,20.23
2018-10-05T05:23:38.959Z,20.43
2018-10-05T05:26:07.193Z,20.63
2018-10-05T05:28:35.338Z,20.70
2018-10-05T05:31:03.617Z,22.27
2018-10-05T05:33:31.847Z,20.83
2018-10-05T05:35:59.979Z,20.93
2018-10-05T05:38:28.169Z,20.90
2018-10-05T05:40:56.353Z,20.73
2018-10-05T05:43:24.497Z,20.00
2018-10-05T05:45:52.686Z,20.47
2018-10-05T05:48:20.846Z,21.33
2018-10-05T05:50:49.072Z,21.13
2018-10-05T05:53:17.213Z,21.30
2018-10-05T05:55:45.371Z,20.93
2018-10-05T05:58:13.576Z,20.37
2018-10-05T06:00:42.019Z,19.80
2018-10-05T06:03:10.241Z,20.80
2018-10-05T06:05:38.383Z,21.40
2018-10-05T06:08:06.599Z,22.63
2018-10-05T06:10:34.822Z,20.90
2018-10-05T06:13:03.051Z,20.30
2018-10-05T06:15:31.192Z,21.30
2018-10-05T06:17:59.365Z,20.70
2018-10-05T06:20:27.570Z,22.27
2018-10-05T06:22:55.764Z,20.97
2018-10-05T06:25:23.917Z,22.23
2018-10-05T06:27:52.041Z,23.27
2018-10-05T06:30:20.322Z,21.10
2018-10-05T06:32:48.541Z,21.43
2018-10-05T06:35:16.645Z,21.40
2018-10-05T06:37:44.759Z,21.40
2018-10-05T06:40:12.922Z,22.70
2018-10-05T06:42:41.125Z,22.20
2018-10-05T06:45:09.244Z,22.43
2018-10-05T06:47:37.405Z,22.27
2018-10-05T06:50:05.655Z,22.50
2018-10-05T06:52:34.609Z,23.80
2018-10-05T06:55:02.827Z,21.60
2018-10-05T06:57:30.998Z,22.87
2018-10-05T06:59:59.142Z,22.60
2018-10-05T07:02:27.266Z,23.80
2018-10-05T07:04:55.449Z,22.83
2018-10-05T07:07:23.621Z,23.97
2018-10-05T07:09:51.715Z,22.40
2018-10-05T07:12:19.810Z,23.47
2018-10-05T07:14:48.162Z,22.60
2018-10-05T07:17:16.301Z,25.30
2018-10-05T07:19:44.444Z,21.93
2018-10-05T07:22:12.671Z,24.77
2018-10-05T07:24:40.743Z,23.53
2018-10-05T07:27:08.924Z,24.47
2018-10-05T07:29:37.070Z,24.10
2018-10-05T07:32:05.265Z,23.40
2018-10-05T07:34:33.350Z,23.63
2018-10-05T07:37:01.501Z,25.20
2018-10-05T07:39:29.646Z,24.47
2018-10-05T07:41:57.830Z,24.93
2018-10-05T07:44:26.005Z,25.10
2018-10-05T07:46:54.191Z,23.93
2018-10-05T07:49:22.383Z,25.60
2018-10-05T07:51:50.528Z,25.07
2018-10-05T07:54:18.670Z,25.77
2018-10-05T07:56:46.862Z,24.60
2018-10-05T07:59:15.105Z,26.23
2018-10-05T08:01:43.340Z,26.70
2018-10-05T08:04:11.525Z,25.80
2018-10-05T08:06:39.691Z,26.37
2018-10-05T08:09:07.872Z,25.80
2018-10-05T08:11:36.142Z,25.23
2018-10-05T08:14:04.290Z,25.40
2018-10-05T08:16:32.501Z,25.50
2018-10-05T08:19:00.718Z,26.40
2018-10-05T08:21:28.949Z,26.33
2018-10-05T08:23:57.103Z,27.63
2018-10-05T08:26:25.304Z,26.90
2018-10-05T08:28:53.444Z,26.90
2018-10-05T08:31:21.875Z,26.30
2018-10-05T08:33:50.090Z,26.07
2018-10-05T08:36:18.216Z,26.80
2018-10-05T08:38:46.380Z,27.07
2018-10-05T08:41:14.481Z,27.77
2018-10-05T08:43:42.707Z,27.13
2018-10-05T08:46:10.814Z,27.27
2018-10-05T08:48:38.921Z,28.07
2018-10-05T08:51:07.075Z,27.97
2018-10-05T08:53:35.156Z,28.37
2018-10-05T08:56:03.319Z,26.67
2018-10-05T08:58:31.463Z,27.67
2018-10-05T09:00:59.559Z,28.50
2018-10-05T09:03:27.660Z,27.80
2018-10-05T09:05:56.020Z,27.20
2018-10-05T09:08:24.015Z,27.07
2018-10-05T09:10:52.152Z,28.17
2018-10-05T09:13:20.260Z,28.80
2018-10-05T09:15:48.425Z,27.40
2018-10-05T09:18:16.632Z,27.90
2018-10-05T09:20:44.731Z,27.33
2018-10-05T09:23:12.877Z,27.27
2018-10-05T09:25:41.124Z,26.77
2018-10-05T09:28:09.313Z,26.20
2018-10-05T09:30:37.546Z,27.57
2018-10-05T09:33:05.655Z,27.27
2018-10-05T09:35:33.792Z,25.90
2018-10-05T09:38:01.980Z,26.23
2018-10-05T09:40:29.936Z,25.60
2018-10-05T09:42:58.012Z,26.40
2018-10-05T09:45:26.127Z,28.50
2018-10-05T09:47:54.277Z,29.07
2018-10-05T09:50:22.476Z,27.07
2018-10-05T09:52:50.693Z,28.47
2018-10-05T09:55:18.972Z,27.03
2018-10-05T09:57:47.074Z,27.47
2018-10-05T10:00:20.771Z,26.10
2018-10-05T10:02:54.411Z,25.67
2018-10-05T10:05:23.177Z,25.30
2018-10-05T10:07:51.691Z,26.33
2018-10-05T10:10:19.929Z,26.30
2018-10-05T10:12:48.152Z,26.77
2018-10-05T10:15:16.257Z,25.30
2018-10-05T10:17:44.372Z,25.90
2018-10-05T10:20:12.516Z,26.23
2018-10-05T10:22:40.746Z,25.60
2018-10-05T10:25:09.048Z,26.30
2018-10-05T10:27:37.206Z,25.30
2018-10-05T10:30:05.440Z,24.97
2018-10-05T10:32:33.587Z,25.83
2018-10-05T10:35:01.647Z,25.30
2018-10-05T10:37:29.732Z,26.20
2018-10-05T10:39:57.831Z,25.00
2018-10-05T10:42:25.993Z,25.10
2018-10-05T10:44:54.182Z,25.20
2018-10-05T10:47:22.311Z,26.10
2018-10-05T10:49:50.383Z,26.70
2018-10-05T10:52:18.470Z,26.13
2018-10-05T10:54:46.566Z,26.30
2018-10-05T10:57:14.729Z,25.23
2018-10-05T10:59:42.888Z,24.60
2018-10-05T11:02:10.997Z,25.00
2018-10-05T11:04:39.342Z,26.17
2018-10-05T11:07:07.324Z,25.50
2018-10-05T11:09:35.393Z,24.33
2018-10-05T11:12:03.576Z,24.90
2018-10-05T11:14:31.798Z,24.93
2018-10-05T11:16:59.997Z,24.03
2018-10-05T11:19:28.096Z,25.33
2018-10-05T11:21:56.277Z,24.50
2018-10-05T11:24:24.424Z,24.50
2018-10-05T11:26:52.725Z,24.17
2018-10-05T11:29:21.116Z,24.97
2018-10-05T11:31:49.277Z,25.20
2018-10-05T11:34:17.473Z,24.60
2018-10-05T11:36:45.609Z,24.70
2018-10-05T11:39:13.704Z,25.60
2018-10-05T11:41:41.873Z,25.30
2018-10-05T11:44:10.020Z,24.40
2018-10-05T11:46:38.103Z,25.67
2018-10-05T11:49:06.256Z,26.60
2018-10-05T11:51:34.357Z,24.90
2018-10-05T11:54:02.511Z,26.53
2018-10-05T11:56:30.595Z,25.17
2018-10-05T11:58:58.701Z,25.90
2018-10-05T12:01:26.847Z,25.50
2018-10-05T12:03:55.111Z,24.97
2018-10-05T12:06:23.256Z,24.73
2018-10-05T12:08:51.343Z,27.00
2018-10-05T12:11:19.459Z,24.97
2018-10-05T12:13:47.696Z,25.00
2018-10-05T12:16:15.764Z,25.50
2018-10-05T12:18:43.891Z,26.73
2018-10-05T12:21:12.101Z,24.70
2018-10-05T12:23:40.241Z,24.63
2018-10-05T12:26:08.766Z,24.97
2018-10-05T12:28:36.935Z,25.37
2018-10-05T12:31:05.090Z,25.20
2018-10-05T12:33:33.262Z,24.70
2018-10-05T12:36:01.373Z,25.20
2018-10-05T12:38:29.590Z,23.60
2018-10-05T12:40:57.784Z,23.77
2018-10-05T12:43:25.945Z,25.10
2018-10-05T12:45:54.181Z,24.67
2018-10-05T12:48:22.361Z,24.80
2018-10-05T12:50:50.461Z,24.33
2018-10-05T12:53:18.604Z,25.00
2018-10-05T12:55:46.763Z,24.77
2018-10-05T12:58:14.945Z,25.87
2018-10-05T13:00:43.076Z,24.80
2018-10-05T13:03:11.226Z,24.40
2018-10-05T13:05:39.607Z,26.50
2018-10-05T13:08:07.777Z,24.97
2018-10-05T13:10:36.032Z,24.53
2018-10-05T13:13:04.178Z,25.17
2018-10-05T13:15:32.292Z,24.20
2018-10-05T13:18:00.748Z,25.67
2018-10-05T13:20:29.024Z,25.47
2018-10-05T13:22:57.649Z,24.83
2018-10-05T13:25:25.803Z,24.90
2018-10-05T13:27:53.891Z,24.70
2018-10-05T13:30:22.028Z,26.47
2018-10-05T13:32:51.148Z,25.00
2018-10-05T13:35:19.357Z,24.23
2018-10-05T13:37:47.487Z,24.53
2018-10-05T13:40:15.652Z,25.80
2018-10-05T13:42:43.783Z,24.73
2018-10-05T13:45:11.912Z,24.87
2018-10-05T13:47:40.100Z,25.40
2018-10-05T13:50:10.227Z,25.07
2018-10-05T13:52:38.377Z,25.67
2018-10-05T13:55:06.589Z,25.37
2018-10-05T13:57:34.728Z,24.80
2018-10-05T14:00:02.881Z,25.50
2018-10-05T14:02:31.503Z,26.07
2018-10-05T14:05:00.034Z,25.00
2018-10-05T14:07:28.565Z,25.20
2018-10-05T14:09:57.076Z,26.20
2018-10-05T14:12:25.558Z,26.13
2018-10-05T14:14:54.042Z,25.97
2018-10-05T14:17:22.519Z,26.27
2018-10-05T14:19:50.739Z,26.10
2018-10-05T14:22:18.860Z,26.07
2018-10-05T14:24:47.053Z,25.97
2018-10-05T14:27:15.206Z,25.60
2018-10-05T14:29:43.375Z,26.03
2018-10-05T14:32:11.645Z,26.20
2018-10-05T14:34:39.841Z,26.00
2018-10-05T14:37:08.026Z,26.40
2018-10-05T14:39:36.335Z,25.73
2018-10-05T14:42:04.471Z,24.50
2018-10-05T14:44:32.923Z,25.17
2018-10-05T14:47:01.074Z,25.73
2018-10-05T14:49:29.233Z,25.57
2018-10-05T14:51:57.369Z,24.93
2018-10-05T14:54:25.501Z,24.47
2018-10-05T14:56:53.639Z,25.30
2018-10-05T14:59:21.743Z,25.80
2018-10-05T15:01:49.820Z,24.90
2018-10-05T15:04:17.925Z,25.23
2018-10-05T15:06:46.063Z,26.90
2018-10-05T15:09:14.173Z,26.20
2018-10-05T15:11:42.369Z,25.60
2018-10-05T15:14:10.549Z,25.67
2018-10-05T15:16:38.652Z,27.80
2018-10-05T15:19:06.735Z,26.03
2018-10-05T15:21:34.915Z,26.53
2018-10-05T15:24:02.972Z,26.23
2018-10-05T15:26:31.047Z,26.23
2018-10-05T15:28:59.180Z,25.50
2018-10-05T15:31:27.337Z,25.57
2018-10-05T15:33:55.513Z,26.47
2018-10-05T15:36:23.699Z,26.37
2018-10-05T15:38:52.033Z,26.40
2018-10-05T15:41:20.125Z,26.03
2018-10-05T15:43:48.268Z,28.37
2018-10-05T15:46:59.069Z,26.07
2018-10-05T15:49:27.968Z,25.50
2018-10-05T15:51:56.177Z,26.10
2018-10-05T15:54:24.307Z,28.30
2018-10-05T15:56:52.810Z,27.40
2018-10-05T15:59:21.032Z,26.70
2018-10-05T16:01:49.189Z,26.00
2018-10-05T16:04:17.653Z,26.30
2018-10-05T16:06:46.335Z,27.80
2018-10-05T16:09:14.562Z,26.60
2018-10-05T16:11:42.734Z,28.17
2018-10-05T16:14:10.917Z,27.00
2018-10-05T16:16:39.128Z,26.33
2018-10-05T16:19:07.714Z,26.40
2018-10-05T16:21:36.390Z,27.17
2018-10-05T16:24:07.079Z,25.90
2018-10-05T16:26:35.158Z,25.77
2018-10-05T16:29:03.388Z,27.23
2018-10-05T16:31:31.778Z,26.73
2018-10-05T16:33:59.940Z,26.33
2018-10-05T16:36:28.093Z,25.90
2018-10-05T16:38:56.285Z,27.30
2018-10-05T16:41:24.469Z,28.17
2018-10-05T16:43:52.609Z,26.90
2018-10-05T16:46:20.781Z,26.60
2018-10-05T16:48:48.973Z,25.80
2018-10-05T16:51:17.149Z,25.33
2018-10-05T16:53:45.377Z,26.73
2018-10-05T16:56:13.693Z,26.17
2018-10-05T16:58:41.854Z,27.13
2018-10-05T17:01:10.060Z,26.17
2018-10-05T17:03:38.223Z,26.10
2018-10-05T17:06:07.985Z,26.20
2018-10-05T17:08:38.793Z,26.90
2018-10-05T17:11:06.986Z,25.50
2018-10-05T17:13:35.137Z,26.60
2018-10-05T17:16:03.327Z,26.00
2018-10-05T17:18:31.467Z,25.80
2018-10-05T17:20:59.662Z,25.80
2018-10-05T17:23:27.891Z,26.10
2018-10-05T17:25:56.372Z,25.47
2018-10-05T17:28:24.498Z,25.70
2018-10-05T17:30:52.625Z,25.37
2018-10-05T17:33:21.602Z,25.63
2018-10-05T17:35:49.839Z,25.83
2018-10-05T17:38:18.342Z,26.30
2018-10-05T17:40:46.473Z,26.10
2018-10-05T17:43:14.628Z,25.60
2018-10-05T17:46:13.935Z,25.43
2018-10-05T17:48:42.255Z,25.90
2018-10-05T17:51:10.532Z,26.23
2018-10-05T17:53:38.705Z,25.77
2018-10-05T17:56:07.113Z,25.60
2018-10-05T17:58:35.217Z,25.67
2018-10-05T18:01:03.420Z,26.10
2018-10-05T18:03:31.594Z,25.60
2018-10-05T18:05:59.720Z,25.83
2018-10-05T18:08:27.972Z,25.70
2018-10-05T18:10:56.110Z,26.53
2018-10-05T18:13:24.285Z,26.30
2018-10-05T18:15:52.445Z,26.10
2018-10-05T18:18:20.662Z,26.33
2018-10-05T18:20:48.841Z,23.97
2018-10-05T18:23:16.960Z,26.37
2018-10-05T18:25:45.134Z,25.10
2018-10-05T18:28:13.395Z,26.93
2018-10-05T18:30:41.511Z,25.90
2018-10-05T18:33:09.680Z,26.23
2018-10-05T18:35:37.836Z,25.27
2018-10-05T18:38:06.320Z,26.20
2018-10-05T18:40:34.512Z,26.30
2018-10-05T18:43:02.693Z,26.30
2018-10-05T18:45:30.876Z,25.83
2018-10-05T18:47:59.244Z,26.47
2018-10-05T18:50:27.380Z,26.70
2018-10-05T18:52:55.491Z,27.03
2018-10-05T18:55:23.937Z,27.77
2018-10-05T18:57:51.992Z,26.77
2018-10-05T19:00:20.140Z,27.50
2018-10-05T19:02:48.544Z,26.73
2018-10-05T19:05:16.665Z,26.57
2018-10-05T19:07:44.923Z,25.87
2018-10-05T19:10:13.079Z,25.53
2018-10-05T19:12:41.183Z,25.80
2018-10-05T19:15:09.333Z,26.10
2018-10-05T19:17:37.500Z,27.27
2018-10-05T19:20:05.632Z,26.37
2018-10-05T19:22:33.769Z,26.60
2018-10-05T19:25:02.013Z,26.07
2018-10-05T19:27:30.141Z,26.43
2018-10-05T19:29:58.302Z,26.33
2018-10-05T19:32:26.469Z,25.43
2018-10-05T19:34:54.663Z,25.30
2018-10-05T19:37:22.816Z,24.80
2018-10-05T19:39:51.003Z,24.67
2018-10-05T19:42:19.221Z,25.60
2018-10-05T19:44:47.453Z,26.50
2018-10-05T19:47:15.614Z,27.33
2018-10-05T19:49:43.779Z,25.30
2018-10-05T19:52:11.956Z,26.60
2018-10-05T19:54:40.176Z,25.60
2018-10-05T19:57:20.848Z,25.77
2018-10-05T19:59:48.995Z,26.53
2018-10-05T20:02:17.141Z,25.60
2018-10-05T20:04:45.297Z,25.53
2018-10-05T20:07:13.521Z,25.90
2018-10-05T20:09:42.815Z,25.33
2018-10-05T20:12:11.160Z,24.57
2018-10-05T20:14:39.421Z,25.60
2018-10-05T20:17:07.670Z,24.80
2018-10-05T20:19:35.763Z,25.03
2018-10-05T20:22:03.968Z,24.87
2018-10-05T20:24:32.271Z,25.80
2018-10-05T20:27:00.420Z,25.87
2018-10-05T20:29:28.623Z,25.90
2018-10-05T20:31:56.788Z,25.67
2018-10-05T20:34:24.979Z,25.13
2018-10-05T20:36:53.343Z,25.83
2018-10-05T20:39:22.392Z,25.20
2018-10-05T20:41:51.486Z,25.50
2018-10-05T20:44:19.829Z,25.10
2018-10-05T20:46:49.460Z,24.20
2018-10-05T20:49:17.578Z,24.40
2018-10-05T20:51:45.810Z,25.67
2018-10-05T20:54:15.267Z,26.23
2018-10-05T20:56:43.430Z,24.27
2018-10-05T20:59:11.653Z,24.23
2018-10-05T21:01:39.794Z,24.40
2018-10-05T21:04:07.960Z,25.47
2018-10-05T21:06:36.124Z,23.43
2018-10-05T21:09:06.451Z,25.27
2018-10-05T21:11:34.685Z,23.77
2018-10-05T21:14:02.950Z,24.93
2018-10-05T21:16:31.105Z,23.60
2018-10-05T21:18:59.328Z,23.53
2018-10-05T21:21:27.621Z,24.60
2018-10-05T21:23:55.797Z,24.20
2018-10-05T21:26:23.952Z,25.00
2018-10-05T21:28:52.132Z,23.37
2018-10-05T21:31:20.428Z,23.87
2018-10-05T21:33:48.700Z,24.60
2018-10-05T21:36:16.832Z,23.53
2018-10-05T21:38:44.969Z,24.90
2018-10-05T21:41:13.177Z,24.20
2018-10-05T21:43:41.313Z,24.43
2018-10-05T21:46:09.454Z,22.90
2018-10-05T21:48:37.685Z,24.03
2018-10-05T21:51:05.791Z,24.17
2018-10-05T21:53:34.051Z,24.33
2018-10-05T21:56:02.165Z,23.93
2018-10-05T21:58:30.323Z,23.30
2018-10-05T22:00:58.524Z,25.37
2018-10-05T22:03:26.668Z,25.13
2018-10-05T22:06:58.187Z,24.60
2018-10-05T22:09:26.363Z,24.67
2018-10-05T22:11:54.505Z,25.90
2018-10-05T22:14:22.669Z,25.50
2018-10-05T22:16:50.881Z,25.03
2018-10-05T22:19:19.053Z,26.43
2018-10-05T22:21:47.184Z,24.73
2018-10-05T22:24:15.413Z,25.80
2018-10-05T22:26:43.508Z,24.53
2018-10-05T22:29:11.734Z,24.80
2018-10-05T22:31:39.872Z,24.80
2018-10-05T22:34:08.211Z,24.43
2018-10-05T22:36:36.385Z,24.87
2018-10-05T22:39:05.695Z,24.87
2018-10-05T22:41:33.976Z,25.23
2018-10-05T22:44:02.040Z,25.10
2018-10-05T22:46:30.194Z,24.97
2018-10-05T22:48:58.423Z,24.80
2018-10-05T22:51:26.657Z,24.30
2018-10-05T22:53:54.819Z,25.13
2018-10-05T22:56:22.991Z,25.80
2018-10-05T22:58:51.097Z,26.00
2018-10-05T23:01:19.200Z,25.27
2018-10-05T23:03:47.394Z,25.10
2018-10-05T23:06:15.628Z,25.10
2018-10-05T23:08:43.832Z,26.20
2018-10-05T23:11:12.048Z,25.23
2018-10-05T23:13:40.179Z,25.50
2018-10-05T23:16:08.428Z,24.53
2018-10-05T23:18:36.703Z,25.83
2018-10-05T23:21:04.776Z,25.83
2018-10-05T23:23:32.944Z,25.20
2018-10-05T23:26:01.060Z,26.77
2018-10-05T23:28:29.200Z,26.27
2018-10-05T23:30:57.453Z,25.53
2018-10-05T23:33:25.624Z,25.70
2018-10-05T23:35:53.784Z,25.63
2018-10-05T23:38:21.885Z,26.87
2018-10-05T23:40:50.047Z,26.10
2018-10-05T23:43:18.273Z,24.47
2018-10-05T23:45:46.426Z,25.37
2018-10-05T23:48:14.588Z,26.10
2018-10-05T23:50:42.668Z,26.97
2018-10-05T23:53:10.763Z,25.43
2018-10-05T23:55:38.994Z,26.17
2018-10-05T23:58:07.121Z,25.93
